Wertzville, Pennsylvania
Current Conditions -  °F | °C
As of 1:56 PM on Saturday 25 Oct 2014 (Local Time) from KCXY Reporting Station
Clear Clear  
Wind Chill: 67°   Ceiling: Unl
Heat Index: 67°   Visibility: 10mi
Dew Point: 44°   Wind: 14mph
Humidity: 44%   Direction: 240°WSW
Pressure: 29.8"   Gusts: NA
Location:  40.2485°N, 77.0142°W
Report Text: KCXY 251756Z 24012KT 10SM CLR 19/07 A2980 RMK AO2 SLP091 T01940067 10194 20061 58033
Loading
Personal Weather Stations






























Interactive Weather Map
Tropical Storm Tracking
New forecast layout! Learn more

10-Day Weather Forecast

Advertisements
Track Severe Weather on mobile